Time;durP1;ratioP1;P1;durP2;ratioP2;P2;SDS_P1;SDS_P2;PMS_P1;PMS_P2;Temp;Humidity;BMP_temperature;BMP_pressure;BME280_temperature;BME280_humidity;BME280_pressure;Samples;Min_cycle;Max_cycle;Signal;HPM_P1;HPM_P2
2023/03/12 00:00:07;;;;;;;8.82;2.45;;;1.00;99.90;;;;;;5050703;28;20037;-48
2023/03/12 00:02:32;;;;;;;12.52;3.35;;;1.00;99.90;;;;;;5050298;28;20044;-47
2023/03/12 00:04:58;;;;;;;9.93;2.80;;;1.00;99.90;;;;;;5049416;28;20413;-48
2023/03/12 00:07:24;;;;;;;4.53;2.37;;;1.00;99.90;;;;;;5048381;28;20040;-47
2023/03/12 00:09:49;;;;;;;2.90;2.13;;;1.00;99.90;;;;;;5058552;28;20394;-47
2023/03/12 00:12:15;;;;;;;5.40;2.30;;;0.90;99.90;;;;;;5070096;28;20040;-47
2023/03/12 00:14:40;;;;;;;2.97;2.27;;;0.90;99.90;;;;;;5069799;28;20116;-47
2023/03/12 00:17:06;;;;;;;7.80;3.30;;;0.80;99.90;;;;;;5061621;28;20776;-47
2023/03/12 00:19:31;;;;;;;5.67;3.30;;;0.80;99.90;;;;;;5057593;28;20032;-46
2023/03/12 00:21:57;;;;;;;4.90;4.40;;;0.80;99.90;;;;;;5069973;28;20481;-48
2023/03/12 00:24:23;;;;;;;8.87;4.53;;;0.80;99.90;;;;;;5065684;28;20036;-48
2023/03/12 00:26:48;;;;;;;10.00;4.78;;;0.90;99.90;;;;;;5033544;28;20120;-47
2023/03/12 00:29:14;;;;;;;11.37;3.17;;;0.90;99.90;;;;;;5030265;28;20116;-47
2023/03/12 00:31:40;;;;;;;6.50;2.97;;;0.90;99.90;;;;;;5037044;28;20044;-46
2023/03/12 00:34:05;;;;;;;6.03;5.10;;;0.90;99.90;;;;;;5045582;28;20033;-47
2023/03/12 00:36:31;;;;;;;7.10;3.33;;;0.90;99.90;;;;;;5040426;28;20139;-47
2023/03/12 00:38:59;;;;;;;6.82;3.10;;;0.90;99.90;;;;;;5028735;28;20060;-48
2023/03/12 00:41:25;;;;;;;6.35;3.25;;;0.90;99.90;;;;;;5043110;28;20044;-47
2023/03/12 00:43:51;;;;;;;8.88;3.53;;;0.80;99.90;;;;;;5049129;28;20406;-47
2023/03/12 00:46:17;;;;;;;7.07;3.42;;;0.90;99.90;;;;;;5049715;28;20033;-46
2023/03/12 00:48:44;;;;;;;10.95;3.10;;;0.90;99.90;;;;;;5048469;28;20048;-47
2023/03/12 00:51:10;;;;;;;10.05;2.60;;;0.90;99.90;;;;;;5049743;28;20041;-47
2023/03/12 00:53:36;;;;;;;3.30;2.17;;;0.90;99.90;;;;;;5035750;28;20113;-48
2023/03/12 00:56:02;;;;;;;7.83;2.97;;;0.90;99.90;;;;;;5029443;28;20520;-46
2023/03/12 00:58:28;;;;;;;;;;;0.90;99.90;;;;;;5029363;28;20041;-47
2023/03/12 01:00:53;;;;;;;5.72;1.55;;;0.90;99.90;;;;;;5029746;28;20382;-48
2023/03/12 01:03:19;;;;;;;6.20;1.73;;;0.90;99.90;;;;;;5029384;28;20065;-47
2023/03/12 01:05:45;;;;;;;10.57;3.05;;;0.90;99.90;;;;;;5028852;28;20460;-47
2023/03/12 01:08:11;;;;;;;4.17;2.27;;;0.90;99.90;;;;;;5028261;28;20513;-47
2023/03/12 01:10:41;;;;;;;5.72;3.50;;;0.90;99.90;;;;;;5029537;28;20733;-47
2023/03/12 01:13:06;;;;;;;5.13;2.83;;;0.90;99.90;;;;;;5029401;28;20064;-48
2023/03/12 01:15:32;;;;;;;5.83;3.00;;;0.90;99.90;;;;;;5030185;28;20498;-46
2023/03/12 01:17:58;;;;;;;7.00;2.37;;;0.90;99.90;;;;;;5032206;28;20047;-47
2023/03/12 01:20:23;;;;;;;4.83;2.83;;;0.90;99.90;;;;;;5033188;28;20099;-47
2023/03/12 01:22:50;;;;;;;7.30;2.27;;;0.80;99.90;;;;;;5033438;28;20407;-47
2023/03/12 01:25:15;;;;;;;;;;;0.80;99.90;;;;;;5033394;28;20304;-47
2023/03/12 01:27:41;;;;;;;3.85;2.80;;;0.80;99.90;;;;;;5031298;28;20408;-47
2023/03/12 01:30:08;;;;;;;6.17;2.47;;;0.80;99.90;;;;;;5062281;28;20055;-49
2023/03/12 01:32:33;;;;;;;9.23;2.92;;;0.80;99.90;;;;;;5073121;28;20086;-47
2023/03/12 01:34:59;;;;;;;6.27;2.90;;;0.80;99.90;;;;;;5069790;28;20036;-46
2023/03/12 01:37:26;;;;;;;3.88;3.05;;;0.80;99.90;;;;;;5043563;28;20398;-47
2023/03/12 01:39:51;;;;;;;4.80;2.38;;;0.70;99.90;;;;;;5043482;28;20041;-47
2023/03/12 01:42:17;;;;;;;10.93;2.43;;;0.70;99.90;;;;;;5032605;28;20091;-48
2023/03/12 01:45:01;;;;;;;10.40;2.58;;;0.70;99.90;;;;;;5032238;28;20045;-48
2023/03/12 01:47:30;;;;;;;5.10;2.22;;;0.70;99.90;;;;;;5035261;28;20564;-47
2023/03/12 01:49:58;;;;;;;3.67;2.72;;;0.80;99.90;;;;;;5050695;28;20040;-47
2023/03/12 01:52:29;;;;;;;2.33;2.13;;;0.80;99.90;;;;;;5050879;28;20041;-48
2023/03/12 01:55:05;;;;;;;6.03;2.78;;;0.80;99.90;;;;;;5036832;28;20033;-47
2023/03/12 01:57:36;;;;;;;6.72;2.85;;;0.80;99.90;;;;;;5031799;28;20099;-47
2023/03/12 02:00:10;;;;;;;5.57;1.83;;;0.80;99.90;;;;;;5049145;28;20127;-46
2023/03/12 02:02:37;;;;;;;3.65;1.80;;;0.80;99.90;;;;;;5046522;28;20040;-47
2023/03/12 02:05:39;;;;;;;7.18;2.40;;;0.80;99.90;;;;;;5047369;28;20550;-47
2023/03/12 02:08:05;;;;;;;14.45;2.28;;;0.80;99.90;;;;;;5037543;28;20041;-47
2023/03/12 02:10:31;;;;;;;8.10;2.67;;;0.70;99.90;;;;;;5052538;28;20498;-47
2023/03/12 02:12:56;;;;;;;4.07;1.70;;;0.70;99.90;;;;;;5043227;28;20037;-47
2023/03/12 02:15:22;;;;;;;6.10;2.23;;;0.70;99.90;;;;;;5032176;28;20044;-46
2023/03/12 02:17:48;;;;;;;5.20;2.45;;;0.70;99.90;;;;;;5030665;28;20052;-46
2023/03/12 02:20:38;;;;;;;2.73;2.27;;;0.70;99.90;;;;;;5032541;28;20045;-47
2023/03/12 02:23:10;;;;;;;2.70;1.95;;;0.70;99.90;;;;;;5032037;28;20045;-47
2023/03/12 02:25:42;;;;;;;6.78;3.05;;;0.70;99.90;;;;;;5044292;28;20562;-46
2023/03/12 02:28:12;;;;;;;6.28;2.55;;;0.70;99.90;;;;;;5050195;28;20048;-47
2023/03/12 02:30:41;;;;;;;4.97;2.42;;;0.70;99.90;;;;;;5050857;28;20081;-46
2023/03/12 02:33:07;;;;;;;6.10;2.90;;;0.70;99.90;;;;;;5052075;28;20163;-47
2023/03/12 02:35:33;;;;;;;6.85;2.50;;;0.70;99.90;;;;;;5051622;28;20044;-47
2023/03/12 02:37:59;;;;;;;5.38;2.25;;;0.70;99.90;;;;;;5050468;28;20398;-47
2023/03/12 02:40:37;;;;;;;4.97;2.87;;;0.70;99.90;;;;;;5051902;28;20041;-47
2023/03/12 02:43:05;;;;;;;3.53;2.30;;;0.70;99.90;;;;;;5051836;28;20041;-47
2023/03/12 02:45:34;;;;;;;4.05;2.05;;;0.70;99.90;;;;;;5051416;28;20040;-46
2023/03/12 02:48:01;;;;;;;4.80;3.42;;;0.70;99.90;;;;;;5050227;28;20041;-47
2023/03/12 02:50:27;;;;;;;4.35;2.28;;;0.70;99.90;;;;;;5051597;28;20498;-47
2023/03/12 02:52:52;;;;;;;4.03;2.83;;;0.70;99.90;;;;;;5051057;28;20043;-47
2023/03/12 02:55:18;;;;;;;6.07;3.10;;;0.70;99.90;;;;;;5051426;28;20794;-47
2023/03/12 02:57:44;;;;;;;6.97;2.78;;;0.70;99.90;;;;;;5036331;28;20120;-47
2023/03/12 03:00:11;;;;;;;4.07;3.00;;;0.70;99.90;;;;;;5031399;28;20136;-47
2023/03/12 03:02:38;;;;;;;4.35;3.13;;;0.70;99.90;;;;;;5065171;28;20067;-46
2023/03/12 03:05:04;;;;;;;4.15;3.28;;;0.70;99.90;;;;;;5052378;28;20028;-46
2023/03/12 03:07:29;;;;;;;8.57;3.83;;;0.70;99.90;;;;;;5034615;28;20590;-48
2023/03/12 03:09:55;;;;;;;5.00;3.60;;;0.70;99.90;;;;;;5049424;28;20124;-47
2023/03/12 03:12:21;;;;;;;3.90;3.50;;;0.70;99.90;;;;;;5042097;28;20037;-47
2023/03/12 03:14:47;;;;;;;7.25;4.38;;;0.80;99.90;;;;;;5032008;28;20041;-47
2023/03/12 03:17:13;;;;;;;7.10;4.63;;;0.70;99.90;;;;;;5038448;28;20087;-47
2023/03/12 03:19:39;;;;;;;6.32;4.18;;;0.80;99.90;;;;;;5050050;28;20072;-47
2023/03/12 03:22:05;;;;;;;5.43;4.27;;;0.80;99.90;;;;;;5038147;28;20072;-47
2023/03/12 03:24:30;;;;;;;10.43;4.87;;;0.80;99.90;;;;;;5050893;28;20037;-47
2023/03/12 03:26:56;;;;;;;9.10;4.83;;;0.80;99.90;;;;;;5040635;28;20041;-47
2023/03/12 03:29:21;;;;;;;8.93;5.10;;;0.80;99.90;;;;;;5030240;28;20041;-47
2023/03/12 03:31:47;;;;;;;13.23;6.03;;;0.80;99.90;;;;;;5036815;28;20406;-47
2023/03/12 03:34:13;;;;;;;8.60;5.63;;;0.80;99.90;;;;;;5049136;28;20552;-46
2023/03/12 03:36:38;;;;;;;8.70;6.27;;;0.80;99.90;;;;;;5050334;28;20570;-46
2023/03/12 03:39:04;;;;;;;8.70;5.73;;;0.80;99.90;;;;;;5038714;28;20077;-46
2023/03/12 03:41:31;;;;;;;9.47;5.90;;;0.80;99.90;;;;;;5030156;28;20414;-46
2023/03/12 03:43:57;;;;;;;8.63;6.00;;;0.80;99.90;;;;;;5029295;28;20697;-47
2023/03/12 03:46:23;;;;;;;17.45;6.07;;;0.80;99.90;;;;;;5030471;28;20038;-47
2023/03/12 03:48:49;;;;;;;8.10;5.78;;;0.80;99.90;;;;;;5029508;28;20133;-47
2023/03/12 03:51:16;;;;;;;10.27;6.50;;;0.80;99.90;;;;;;5030072;28;20048;-47
2023/03/12 03:53:41;;;;;;;10.07;6.13;;;0.80;99.90;;;;;;5030141;28;20281;-47
2023/03/12 03:56:09;;;;;;;8.38;6.05;;;0.80;99.90;;;;;;5030413;28;20033;-47
2023/03/12 03:58:35;;;;;;;10.77;6.00;;;0.80;99.90;;;;;;5029543;28;20041;-47
2023/03/12 04:01:01;;;;;;;9.18;5.88;;;0.80;99.90;;;;;;5030325;28;20045;-47
2023/03/12 04:03:27;;;;;;;10.63;6.20;;;0.80;99.90;;;;;;5029937;28;20112;-47
2023/03/12 04:05:54;;;;;;;7.43;5.67;;;0.80;99.90;;;;;;5029353;28;20052;-47
2023/03/12 04:08:19;;;;;;;10.85;6.30;;;0.80;99.90;;;;;;5029503;28;20346;-48
2023/03/12 04:10:45;;;;;;;9.87;6.43;;;0.80;99.90;;;;;;5031488;28;20439;-47
2023/03/12 04:13:10;;;;;;;9.93;6.47;;;0.80;99.90;;;;;;5030073;28;20029;-46
2023/03/12 04:15:36;;;;;;;11.87;6.80;;;0.80;99.90;;;;;;5054011;28;20109;-47
2023/03/12 04:18:01;;;;;;;11.40;6.17;;;0.80;99.90;;;;;;5048712;28;20041;-48
2023/03/12 04:20:27;;;;;;;9.10;7.37;;;0.80;99.90;;;;;;5032399;28;20049;-46
2023/03/12 04:22:53;;;;;;;12.90;6.57;;;0.80;99.90;;;;;;5030462;28;20116;-46
2023/03/12 04:25:18;;;;;;;11.87;6.43;;;0.80;99.90;;;;;;5036748;28;20075;-46
2023/03/12 04:27:44;;;;;;;7.40;6.30;;;0.80;99.90;;;;;;5042780;28;20065;-48
2023/03/12 04:30:10;;;;;;;11.13;7.33;;;0.70;99.90;;;;;;5039572;28;20079;-48
2023/03/12 04:32:36;;;;;;;12.57;7.43;;;0.80;99.90;;;;;;5049467;28;20056;-46
2023/03/12 04:35:02;;;;;;;9.70;7.00;;;0.70;99.90;;;;;;5029610;28;20053;-47
2023/03/12 04:37:30;;;;;;;11.73;7.23;;;0.70;99.90;;;;;;5029024;28;20049;-49
2023/03/12 04:39:56;;;;;;;10.02;8.32;;;0.70;99.90;;;;;;5029627;28;20580;-47
2023/03/12 04:42:21;;;;;;;13.93;7.90;;;0.70;99.90;;;;;;5029172;28;20045;-46
2023/03/12 04:44:51;;;;;;;13.10;7.63;;;0.70;99.90;;;;;;5029416;28;20503;-46
2023/03/12 04:47:17;;;;;;;13.05;8.40;;;0.70;99.90;;;;;;5029205;28;20524;-47
2023/03/12 04:49:43;;;;;;;10.00;7.77;;;0.70;99.90;;;;;;5031860;28;20124;-46
2023/03/12 04:52:08;;;;;;;14.65;7.95;;;0.70;99.90;;;;;;5036162;28;20048;-48
2023/03/12 04:54:34;;;;;;;10.07;7.30;;;0.70;99.90;;;;;;5035977;28;20577;-46
2023/03/12 04:56:59;;;;;;;12.47;7.97;;;0.70;99.90;;;;;;5035637;28;20036;-46
2023/03/12 04:59:25;;;;;;;12.50;8.03;;;0.70;99.90;;;;;;5035651;28;20527;-46
2023/03/12 05:01:51;;;;;;;15.03;8.53;;;0.70;99.90;;;;;;5036765;28;20033;-47
2023/03/12 05:04:16;;;;;;;15.07;9.10;;;0.70;99.90;;;;;;5036202;28;20041;-47
2023/03/12 05:06:42;;;;;;;16.20;9.80;;;0.80;99.90;;;;;;5036357;28;20037;-47
2023/03/12 05:09:08;;;;;;;13.63;7.33;;;0.80;99.90;;;;;;5035625;28;20087;-47
2023/03/12 05:11:33;;;;;;;13.93;9.70;;;0.80;99.90;;;;;;5036032;28;20352;-47
2023/03/12 05:13:59;;;;;;;16.00;9.93;;;0.80;99.90;;;;;;5035685;28;20396;-46
2023/03/12 05:16:24;;;;;;;13.73;9.20;;;0.80;99.90;;;;;;5036219;28;20127;-46
2023/03/12 05:18:50;;;;;;;12.33;8.60;;;0.80;99.90;;;;;;5053948;28;20504;-47
2023/03/12 05:21:19;;;;;;;14.23;8.40;;;0.90;99.90;;;;;;5056139;28;20628;-46
2023/03/12 05:23:46;;;;;;;13.35;8.00;;;0.80;99.90;;;;;;5035412;28;20485;-46
2023/03/12 05:26:24;;;;;;;11.75;8.30;;;0.80;99.90;;;;;;5042571;28;20403;-46
2023/03/12 05:28:51;;;;;;;11.93;8.63;;;0.90;99.90;;;;;;5036057;28;20048;-47
2023/03/12 05:31:17;;;;;;;14.63;8.85;;;0.90;99.90;;;;;;5044286;28;20052;-46
2023/03/12 05:33:43;;;;;;;11.60;9.00;;;0.90;99.90;;;;;;5060531;28;20033;-48
2023/03/12 05:36:09;;;;;;;10.23;7.63;;;0.90;99.90;;;;;;5053070;28;20033;-46
2023/03/12 05:38:35;;;;;;;14.68;8.32;;;0.90;99.90;;;;;;5074738;28;20045;-46
2023/03/12 05:41:02;;;;;;;11.93;7.72;;;0.90;99.90;;;;;;5056632;28;20036;-46
2023/03/12 05:43:28;;;;;;;;;;;0.90;99.90;;;;;;5055857;28;20095;-47
2023/03/12 05:45:59;;;;;;;11.30;7.40;;;0.90;99.90;;;;;;5055446;28;19916;-47
2023/03/12 05:48:25;;;;;;;15.77;7.15;;;0.90;99.90;;;;;;5060606;28;20043;-47
2023/03/12 05:50:51;;;;;;;11.77;8.23;;;0.90;99.90;;;;;;5075346;28;20107;-48
2023/03/12 05:53:16;;;;;;;13.40;8.03;;;0.90;99.90;;;;;;5055358;28;20086;-46
2023/03/12 05:55:42;;;;;;;10.57;7.47;;;1.00;99.90;;;;;;5055317;28;20071;-47
2023/03/12 05:58:08;;;;;;;12.23;8.10;;;0.90;99.90;;;;;;5054381;28;20045;-46
2023/03/12 06:00:36;;;;;;;;;;;1.00;99.90;;;;;;5055421;28;20033;-46
2023/03/12 06:03:03;;;;;;;9.48;7.85;;;1.00;99.90;;;;;;5050468;28;19916;-47
2023/03/12 06:05:30;;;;;;;8.77;7.85;;;1.00;99.90;;;;;;5051624;28;20041;-47
2023/03/12 06:07:56;;;;;;;14.65;7.50;;;1.00;99.90;;;;;;5051556;28;20053;-46
2023/03/12 06:10:22;;;;;;;14.55;8.32;;;1.00;99.90;;;;;;5052637;28;20147;-46
2023/03/12 06:12:47;;;;;;;12.20;7.33;;;1.00;99.90;;;;;;5052264;28;20041;-47
2023/03/12 06:15:16;;;;;;;14.13;7.72;;;1.00;99.90;;;;;;5051866;28;20037;-46
2023/03/12 06:17:42;;;;;;;14.70;7.50;;;1.10;99.90;;;;;;5050866;28;20513;-47
2023/03/12 06:20:08;;;;;;;12.00;7.23;;;1.10;99.90;;;;;;5051949;28;20045;-46
2023/03/12 06:22:34;;;;;;;;;;;1.10;99.90;;;;;;5051518;28;20053;-46
2023/03/12 06:25:00;;;;;;;16.42;8.07;;;1.10;99.90;;;;;;5045144;28;19917;-47
2023/03/12 06:27:25;;;;;;;11.70;8.30;;;1.10;99.90;;;;;;5031435;28;20496;-47
2023/03/12 06:29:51;;;;;;;18.50;7.63;;;1.20;99.90;;;;;;5030431;28;20083;-46
2023/03/12 06:32:17;;;;;;;19.40;7.83;;;1.20;99.90;;;;;;5032159;28;20030;-47
2023/03/12 06:34:43;;;;;;;13.98;9.02;;;1.20;99.90;;;;;;5041061;28;20045;-47
2023/03/12 06:37:10;;;;;;;12.52;7.70;;;1.20;99.90;;;;;;5044763;28;20163;-47
2023/03/12 06:39:36;;;;;;;11.00;7.75;;;1.20;99.90;;;;;;5044592;28;20071;-47
2023/03/12 06:42:02;;;;;;;12.20;8.15;;;1.30;99.90;;;;;;5043896;28;20048;-47
2023/03/12 06:44:27;;;;;;;12.43;8.27;;;1.30;99.90;;;;;;5051041;28;20748;-47
2023/03/12 06:46:54;;;;;;;10.17;8.73;;;1.30;99.90;;;;;;5033187;28;20482;-46
2023/03/12 06:49:19;;;;;;;;;;;1.30;99.90;;;;;;5031418;28;20034;-46
2023/03/12 06:51:45;;;;;;;13.88;6.80;;;1.30;99.90;;;;;;5031834;28;19924;-47
2023/03/12 06:54:11;;;;;;;8.63;6.63;;;1.40;99.90;;;;;;5031162;28;20041;-48
2023/03/12 06:56:37;;;;;;;8.50;7.10;;;1.40;99.90;;;;;;5031530;28;20041;-47
2023/03/12 06:59:02;;;;;;;10.98;7.00;;;1.40;99.90;;;;;;5048780;28;20044;-47
2023/03/12 07:01:28;;;;;;;17.05;7.60;;;1.40;99.90;;;;;;5051477;28;20095;-46
2023/03/12 07:03:54;;;;;;;8.57;7.10;;;1.50;99.90;;;;;;5051074;28;20051;-47
2023/03/12 07:06:21;;;;;;;8.33;6.63;;;1.50;99.90;;;;;;5051079;28;20037;-48
2023/03/12 07:08:47;;;;;;;14.80;6.63;;;1.50;99.90;;;;;;5050250;28;20063;-47
2023/03/12 07:11:13;;;;;;;12.15;6.90;;;1.50;99.90;;;;;;5050997;28;20037;-48
2023/03/12 07:13:39;;;;;;;12.40;7.00;;;1.60;99.90;;;;;;5048345;28;20045;-47
2023/03/12 07:16:06;;;;;;;13.77;6.68;;;1.60;99.90;;;;;;5051235;28;20079;-47
2023/03/12 07:18:31;;;;;;;6.22;5.65;;;1.60;99.90;;;;;;5048948;28;20098;-46
2023/03/12 07:20:57;;;;;;;11.23;5.43;;;1.70;99.90;;;;;;5051099;28;20405;-46
2023/03/12 07:23:23;;;;;;;10.33;5.47;;;1.70;99.90;;;;;;5050713;28;20029;-47
2023/03/12 07:25:49;;;;;;;11.20;6.32;;;1.70;99.90;;;;;;5045337;28;20487;-46
2023/03/12 07:28:16;;;;;;;14.60;5.95;;;1.70;99.90;;;;;;5041493;28;20502;-47
2023/03/12 07:30:42;;;;;;;14.77;6.32;;;1.80;99.90;;;;;;5035830;28;20453;-46
2023/03/12 07:33:11;;;;;;;13.10;6.43;;;1.80;99.90;;;;;;5038407;28;20038;-46
2023/03/12 07:35:38;;;;;;;9.52;5.40;;;1.80;99.90;;;;;;5066345;28;20332;-46
2023/03/12 07:38:04;;;;;;;12.77;5.05;;;1.80;99.90;;;;;;5042098;28;20411;-49
2023/03/12 07:40:30;;;;;;;11.35;5.72;;;1.90;99.90;;;;;;5044457;28;20449;-47
2023/03/12 07:42:56;;;;;;;12.43;6.47;;;1.90;99.90;;;;;;5046981;28;20041;-46
2023/03/12 07:45:22;;;;;;;13.63;5.75;;;1.90;99.90;;;;;;5039977;28;20041;-47
2023/03/12 07:47:48;;;;;;;10.10;6.05;;;1.90;99.90;;;;;;5065341;28;20873;-47
2023/03/12 07:50:15;;;;;;;7.07;5.93;;;1.90;99.90;;;;;;5051851;28;20036;-47
2023/03/12 07:52:41;;;;;;;9.77;6.10;;;1.90;99.90;;;;;;5049722;28;20697;-47
2023/03/12 07:55:07;;;;;;;14.03;6.57;;;1.90;99.90;;;;;;5048566;28;20037;-47
2023/03/12 07:57:33;;;;;;;;;;;1.90;99.90;;;;;;5049441;28;20322;-46
2023/03/12 07:59:58;;;;;;;14.55;7.43;;;1.90;99.90;;;;;;5045995;28;20388;-47
2023/03/12 08:02:24;;;;;;;12.13;8.03;;;1.80;99.90;;;;;;5044453;28;20121;-47
2023/03/12 08:04:50;;;;;;;14.33;8.77;;;1.70;99.90;;;;;;5044310;28;20420;-46
2023/03/12 08:07:15;;;;;;;18.50;9.50;;;1.60;99.90;;;;;;5046734;28;20072;-47
2023/03/12 08:09:41;;;;;;;16.10;8.87;;;1.60;99.90;;;;;;5049952;28;20032;-47
2023/03/12 08:12:07;;;;;;;17.97;9.87;;;1.50;99.90;;;;;;5049580;28;20040;-49
2023/03/12 08:14:33;;;;;;;17.02;9.38;;;1.50;99.90;;;;;;5049829;28;20047;-47
2023/03/12 08:16:59;;;;;;;18.92;9.98;;;1.50;99.90;;;;;;5050226;28;20064;-47
2023/03/12 08:19:24;;;;;;;18.47;10.30;;;1.40;99.90;;;;;;5048843;28;20472;-47
2023/03/12 08:21:52;;;;;;;12.75;11.05;;;1.40;99.90;;;;;;5048599;28;20287;-47
2023/03/12 08:24:18;;;;;;;17.10;12.55;;;1.40;99.90;;;;;;5047185;28;20159;-48
2023/03/12 08:26:44;;;;;;;15.43;11.73;;;1.40;99.90;;;;;;5046391;28;20088;-46
2023/03/12 08:29:10;;;;;;;20.53;13.77;;;1.40;99.90;;;;;;5045517;28;20134;-47
2023/03/12 08:31:35;;;;;;;14.35;12.88;;;1.40;99.90;;;;;;5045329;28;20121;-47
2023/03/12 08:34:01;;;;;;;23.23;11.63;;;1.40;99.90;;;;;;5036010;28;20078;-46
2023/03/12 08:36:26;;;;;;;16.87;13.10;;;1.40;99.90;;;;;;5037354;28;20030;-46
2023/03/12 08:38:52;;;;;;;20.63;13.87;;;1.40;99.90;;;;;;5049456;28;20056;-47
2023/03/12 08:41:17;;;;;;;18.37;11.87;;;1.30;99.90;;;;;;5048921;28;20123;-46
2023/03/12 08:43:43;;;;;;;14.80;11.87;;;1.30;99.90;;;;;;5049025;28;20494;-46
2023/03/12 08:46:09;;;;;;;17.57;12.20;;;1.30;99.90;;;;;;5042691;28;20042;-47
2023/03/12 08:48:34;;;;;;;18.50;13.47;;;1.30;99.90;;;;;;5045342;28;20071;-45
2023/03/12 08:51:03;;;;;;;18.03;12.87;;;1.30;99.90;;;;;;5032142;28;20279;-46
2023/03/12 08:53:30;;;;;;;18.92;12.82;;;1.30;99.90;;;;;;5042549;28;20041;-46
2023/03/12 08:55:56;;;;;;;18.33;14.63;;;1.30;99.90;;;;;;5038765;28;20490;-46
2023/03/12 08:58:23;;;;;;;15.98;12.93;;;1.30;99.90;;;;;;5047174;28;20056;-47
2023/03/12 09:00:49;;;;;;;19.45;14.23;;;1.30;99.90;;;;;;5049145;28;20056;-47
2023/03/12 09:03:15;;;;;;;19.45;15.63;;;1.30;99.90;;;;;;5047879;28;20041;-46
2023/03/12 09:05:41;;;;;;;18.90;16.08;;;1.30;99.90;;;;;;5048669;28;20045;-47
2023/03/12 09:08:08;;;;;;;21.45;15.40;;;1.40;99.90;;;;;;5047832;28;20538;-46
2023/03/12 09:10:34;;;;;;;25.65;17.10;;;1.40;99.90;;;;;;5049355;28;20045;-47
2023/03/12 09:13:01;;;;;;;21.63;16.25;;;1.50;99.90;;;;;;5049152;28;20029;-47
2023/03/12 09:15:26;;;;;;;20.90;17.13;;;1.50;99.90;;;;;;5048253;28;20252;-47
2023/03/12 09:17:52;;;;;;;29.50;17.23;;;1.60;99.90;;;;;;5048242;28;20490;-46
2023/03/12 09:20:18;;;;;;;26.13;17.55;;;1.60;99.90;;;;;;5049174;28;20116;-47
2023/03/12 09:22:44;;;;;;;25.48;21.02;;;1.60;99.90;;;;;;5048563;28;20610;-46
2023/03/12 09:25:11;;;;;;;27.13;18.98;;;1.60;99.90;;;;;;5049111;28;20064;-47
2023/03/12 09:27:45;;;;;;;26.27;20.23;;;1.60;99.90;;;;;;5047810;28;20052;-47
2023/03/12 09:30:17;;;;;;;28.65;19.10;;;1.70;99.90;;;;;;5049263;28;20065;-46
2023/03/12 09:32:44;;;;;;;25.70;17.20;;;1.70;99.90;;;;;;5049032;28;20105;-47
2023/03/12 09:35:11;;;;;;;27.10;19.17;;;1.70;99.90;;;;;;5047102;28;20048;-47
2023/03/12 09:37:37;;;;;;;25.50;17.58;;;1.70;99.90;;;;;;5050285;28;20290;-47
2023/03/12 09:40:12;;;;;;;33.13;19.30;;;1.70;99.90;;;;;;5052762;28;20120;-47
2023/03/12 09:42:42;;;;;;;29.90;19.38;;;1.70;99.90;;;;;;5052704;28;20045;-48
2023/03/12 09:45:15;;;;;;;26.83;17.92;;;1.70;99.90;;;;;;5052335;28;20554;-47
2023/03/12 09:47:51;;;;;;;28.52;18.85;;;1.80;99.90;;;;;;5047055;28;20048;-47
2023/03/12 09:50:39;;;;;;;29.25;18.83;;;1.80;99.90;;;;;;5051013;28;20087;-47
2023/03/12 09:53:16;;;;;;;28.15;17.45;;;1.80;99.90;;;;;;5052915;28;20040;-47
2023/03/12 09:55:46;;;;;;;29.25;18.42;;;1.80;99.90;;;;;;5051961;28;20041;-47
2023/03/12 09:58:15;;;;;;;25.98;18.30;;;1.90;99.90;;;;;;5046798;28;20033;-46
2023/03/12 10:00:40;;;;;;;24.95;18.85;;;1.90;99.90;;;;;;5043273;28;20441;-47
2023/03/12 10:03:35;;;;;;;36.17;23.83;;;1.90;99.90;;;;;;5046905;28;20059;-46
2023/03/12 10:06:14;;;;;;;31.98;20.48;;;2.00;99.90;;;;;;5049782;28;20045;-47
2023/03/12 10:08:52;;;;;;;28.55;19.85;;;2.00;99.90;;;;;;5038318;28;20537;-48
2023/03/12 10:11:55;;;;;;;32.38;20.13;;;2.10;99.90;;;;;;5041099;28;20041;-47
2023/03/12 10:14:47;;;;;;;27.55;20.38;;;2.10;99.90;;;;;;5050795;28;20037;-46
2023/03/12 10:17:42;;;;;;;35.05;22.08;;;2.10;99.90;;;;;;5040145;28;20481;-48
2023/03/12 10:20:16;;;;;;;34.00;21.55;;;2.10;99.90;;;;;;5038772;28;20041;-46
2023/03/12 10:23:00;;;;;;;27.73;20.10;;;2.20;99.90;;;;;;5044550;28;20459;-47
2023/03/12 10:25:38;;;;;;;27.85;22.25;;;2.20;99.90;;;;;;5044001;28;20099;-46
2023/03/12 10:28:13;;;;;;;34.25;22.65;;;2.20;99.90;;;;;;5049694;28;20041;-47
2023/03/12 10:30:45;;;;;;;34.35;23.02;;;2.30;99.90;;;;;;5038982;28;20041;-47
2023/03/12 10:33:14;;;;;;;34.10;23.77;;;2.40;99.90;;;;;;5041472;28;20069;-47
2023/03/12 10:35:41;;;;;;;35.15;22.92;;;2.40;99.90;;;;;;5038274;28;20269;-47
2023/03/12 10:38:26;;;;;;;36.00;24.17;;;2.50;99.90;;;;;;5039309;28;20046;-48
2023/03/12 10:40:52;;;;;;;32.85;22.63;;;2.60;99.90;;;;;;5031819;28;20041;-47
2023/03/12 10:43:20;;;;;;;35.67;24.53;;;2.70;99.90;;;;;;5032803;28;20417;-49
2023/03/12 10:46:00;;;;;;;32.75;23.55;;;2.70;99.90;;;;;;5031784;28;20081;-47
2023/03/12 10:48:26;;;;;;;31.48;24.10;;;2.80;99.90;;;;;;5040858;28;20064;-48
2023/03/12 10:51:05;;;;;;;34.10;24.63;;;2.90;99.90;;;;;;5031700;28;20037;-46
2023/03/12 10:53:46;;;;;;;31.75;22.48;;;2.90;99.90;;;;;;5047549;28;20036;-47
2023/03/12 10:56:15;;;;;;;35.45;23.70;;;3.00;99.90;;;;;;5071566;28;20080;-47
2023/03/12 10:58:49;;;;;;;31.95;25.40;;;3.10;99.90;;;;;;5069915;28;20439;-47
2023/03/12 11:01:20;;;;;;;36.50;23.60;;;3.10;99.90;;;;;;5054886;28;20041;-47
2023/03/12 11:03:46;;;;;;;34.25;23.90;;;3.10;99.90;;;;;;5037945;28;20088;-46
2023/03/12 11:06:28;;;;;;;38.10;25.27;;;3.20;99.90;;;;;;5051079;28;20065;-48
2023/03/12 11:09:13;;;;;;;32.33;23.10;;;3.20;99.90;;;;;;5040434;28;20796;-47
2023/03/12 11:11:39;;;;;;;35.38;24.63;;;3.30;99.90;;;;;;5049454;28;20095;-47
2023/03/12 11:14:14;;;;;;;35.43;23.73;;;3.30;99.90;;;;;;5045776;28;20494;-48
2023/03/12 11:16:40;;;;;;;30.77;22.50;;;3.40;99.90;;;;;;5031465;28;20037;-47
2023/03/12 11:19:06;;;;;;;38.30;23.80;;;3.40;99.90;;;;;;5030636;28;20175;-48
2023/03/12 11:21:35;;;;;;;36.75;25.50;;;3.50;99.90;;;;;;5030889;28;20041;-48
2023/03/12 11:24:14;;;;;;;29.00;22.00;;;3.60;99.90;;;;;;5030848;28;20045;-48
2023/03/12 11:26:51;;;;;;;36.25;23.38;;;3.70;99.90;;;;;;5039514;28;20041;-46
2023/03/12 11:29:26;;;;;;;31.58;23.83;;;3.70;99.90;;;;;;5049947;28;20045;-47
2023/03/12 11:32:09;;;;;;;32.53;22.65;;;3.80;99.90;;;;;;5050613;28;20037;-48
2023/03/12 11:34:38;;;;;;;33.15;23.70;;;3.90;99.90;;;;;;5050506;28;20040;-48
2023/03/12 11:37:27;;;;;;;35.28;22.95;;;4.00;99.90;;;;;;5051096;28;20480;-50
2023/03/12 11:40:11;;;;;;;36.97;22.95;;;4.00;99.90;;;;;;5050427;28;20491;-48
2023/03/12 11:43:13;;;;;;;31.70;22.60;;;4.10;99.90;;;;;;5050635;28;20572;-46
2023/03/12 11:46:09;;;;;;;33.33;23.02;;;4.20;99.90;;;;;;5050393;28;20048;-46
2023/03/12 11:48:47;;;;;;;33.42;21.67;;;4.20;99.90;;;;;;5020046;28;20052;-47
2023/03/12 11:51:22;;;;;;;31.73;22.50;;;4.40;99.90;;;;;;5036952;28;20029;-46
2023/03/12 11:53:56;;;;;;;36.55;23.38;;;4.40;99.90;;;;;;5037516;28;20041;-47
2023/03/12 11:56:37;;;;;;;34.80;22.73;;;4.50;99.90;;;;;;5030302;28;20034;-48
2023/03/12 11:59:40;;;;;;;38.42;23.75;;;4.60;99.90;;;;;;5037645;28;20040;-48
2023/03/12 12:02:39;;;;;;;40.00;23.25;;;4.70;99.90;;;;;;5050483;28;20102;-46
2023/03/12 12:05:13;;;;;;;45.53;24.63;;;4.80;99.90;;;;;;5029753;28;20040;-48
2023/03/12 12:08:16;;;;;;;36.63;24.75;;;4.90;99.90;;;;;;5029192;28;20053;-48
2023/03/12 12:10:56;;;;;;;41.03;24.77;;;5.00;99.90;;;;;;5047644;28;20072;-48
2023/03/12 12:13:54;;;;;;;40.13;24.45;;;5.20;99.90;;;;;;5048342;28;20034;-48
2023/03/12 12:16:27;;;;;;;42.45;24.70;;;5.20;99.90;;;;;;5022498;28;20048;-47
2023/03/12 12:19:14;;;;;;;45.08;25.40;;;5.30;99.90;;;;;;5049217;28;20045;-48
2023/03/12 12:22:18;;;;;;;48.33;25.63;;;5.40;99.90;;;;;;5029995;28;20045;-48
2023/03/12 12:24:55;;;;;;;46.47;27.02;;;5.40;99.90;;;;;;5029471;28;20132;-46
2023/03/12 12:27:25;;;;;;;57.17;26.98;;;5.50;99.90;;;;;;5029747;28;20049;-48
2023/03/12 12:30:14;;;;;;;51.00;28.98;;;5.60;99.90;;;;;;5029483;28;20041;-46
2023/03/12 12:32:55;;;;;;;53.85;28.63;;;5.60;99.90;;;;;;5040185;28;20037;-46
2023/03/12 12:35:41;;;;;;;48.80;27.55;;;5.70;99.90;;;;;;5049364;28;20040;-48
2023/03/12 12:38:29;;;;;;;52.63;28.33;;;5.80;99.90;;;;;;5045452;28;20067;-47
2023/03/12 12:41:00;;;;;;;54.25;29.52;;;5.80;99.90;;;;;;5039769;28;20056;-49
2023/03/12 12:43:39;;;;;;;47.20;26.67;;;5.90;99.90;;;;;;5039788;28;20368;-47
2023/03/12 12:46:17;;;;;;;44.08;27.98;;;5.90;99.90;;;;;;5029701;28;20048;-48
2023/03/12 12:48:58;;;;;;;55.33;29.70;;;6.00;99.90;;;;;;5028828;28;20411;-47
2023/03/12 12:51:32;;;;;;;59.20;31.38;;;6.00;99.90;;;;;;5029896;28;20037;-48
2023/03/12 12:54:15;;;;;;;58.78;31.65;;;6.00;99.90;;;;;;5029399;28;20041;-47
2023/03/12 12:56:53;;;;;;;58.25;31.17;;;6.10;99.90;;;;;;5030311;28;20065;-47
2023/03/12 12:59:56;;;;;;;56.00;30.17;;;6.20;99.90;;;;;;5028590;28;20045;-47